Rockport, Massachusetts
Current Conditions -  °F | °C
As of 8:53 AM on Tuesday 21 Oct 2014 (Local Time) from KBVY Reporting Station
Overcast Overcast  
Wind Chill: 51°   Ceiling: 5500
Heat Index: 51°   Visibility: 10mi
Dew Point: 48°   Wind: 3mph
Humidity: 89%   Direction: 320°NW
Pressure: 29.99"   Gusts: NA
Location:  42.66°N, 70.62°W
Report Text: KBVY 211253Z 32003KT 10SM SCT046 BKN055 OVC070 11/09 A2999 RMK AO2 SLP151 T01060089
Loading
Personal Weather Stations






























Interactive Weather Map
Tropical Storm Tracking
New forecast layout! Learn more

10-Day Weather Forecast

Advertisements
Track Severe Weather on mobile